sensor_id;sensor_type;location;lat;lon;timestamp;pressure;altitude;pressure_sealevel;temperature;humidity
55675;BME280;41562;44.330;23.802;2023-02-01T00:01:09;100310.75;;;3.02;89.83
55675;BME280;41562;44.330;23.802;2023-02-01T00:03:37;100314.84;;;2.98;89.61
55675;BME280;41562;44.330;23.802;2023-02-01T00:06:05;100315.56;;;3.05;90.68
55675;BME280;41562;44.330;23.802;2023-02-01T00:08:32;100300.25;;;3.14;89.51
55675;BME280;41562;44.330;23.802;2023-02-01T00:11:05;100302.50;;;3.10;88.67
55675;BME280;41562;44.330;23.802;2023-02-01T00:13:39;100304.00;;;3.06;89.13
55675;BME280;41562;44.330;23.802;2023-02-01T00:16:09;100305.81;;;3.06;89.46
55675;BME280;41562;44.330;23.802;2023-02-01T00:18:37;100293.78;;;3.10;90.71
55675;BME280;41562;44.330;23.802;2023-02-01T00:21:04;100297.91;;;3.06;88.38
55675;BME280;41562;44.330;23.802;2023-02-01T00:23:34;100304.19;;;3.05;86.79
55675;BME280;41562;44.330;23.802;2023-02-01T00:26:03;100305.53;;;2.96;91.68
55675;BME280;41562;44.330;23.802;2023-02-01T00:28:31;100308.59;;;3.11;90.07
55675;BME280;41562;44.330;23.802;2023-02-01T00:31:00;100316.09;;;2.96;87.21
55675;BME280;41562;44.330;23.802;2023-02-01T00:33:29;100315.22;;;3.02;87.32
55675;BME280;41562;44.330;23.802;2023-02-01T00:36:02;100313.16;;;3.04;90.02
55675;BME280;41562;44.330;23.802;2023-02-01T00:38:30;100311.38;;;2.98;88.82
55675;BME280;41562;44.330;23.802;2023-02-01T00:41:06;100304.06;;;3.00;87.07
55675;BME280;41562;44.330;23.802;2023-02-01T00:43:34;100303.97;;;2.88;87.05
55675;BME280;41562;44.330;23.802;2023-02-01T00:46:02;100302.38;;;2.87;86.72
55675;BME280;41562;44.330;23.802;2023-02-01T00:48:30;100308.28;;;2.64;88.89
55675;BME280;41562;44.330;23.802;2023-02-01T00:51:02;100318.25;;;2.62;88.71
55675;BME280;41562;44.330;23.802;2023-02-01T00:53:30;100307.84;;;2.67;88.18
55675;BME280;41562;44.330;23.802;2023-02-01T00:55:57;100306.81;;;2.68;87.49
55675;BME280;41562;44.330;23.802;2023-02-01T00:58:25;100309.50;;;2.62;88.77
55675;BME280;41562;44.330;23.802;2023-02-01T01:01:08;100309.56;;;2.55;89.01
55675;BME280;41562;44.330;23.802;2023-02-01T01:03:38;100304.94;;;2.51;88.21
55675;BME280;41562;44.330;23.802;2023-02-01T01:06:09;100305.91;;;2.56;91.35
55675;BME280;41562;44.330;23.802;2023-02-01T01:08:38;100297.63;;;2.53;89.00
55675;BME280;41562;44.330;23.802;2023-02-01T01:13:37;100298.56;;;2.40;88.67
55675;BME280;41562;44.330;23.802;2023-02-01T01:16:06;100302.97;;;2.46;89.91
55675;BME280;41562;44.330;23.802;2023-02-01T01:18:35;100303.22;;;2.38;90.22
55675;BME280;41562;44.330;23.802;2023-02-01T01:21:04;100307.84;;;2.42;89.28
55675;BME280;41562;44.330;23.802;2023-02-01T01:23:32;100298.81;;;2.32;89.87
55675;BME280;41562;44.330;23.802;2023-02-01T01:26:00;100305.88;;;2.38;89.24
55675;BME280;41562;44.330;23.802;2023-02-01T01:28:34;100292.94;;;2.55;91.20
55675;BME280;41562;44.330;23.802;2023-02-01T01:31:02;100300.00;;;2.36;88.92
55675;BME280;41562;44.330;23.802;2023-02-01T01:33:29;100290.97;;;2.25;89.67
55675;BME280;41562;44.330;23.802;2023-02-01T01:35:57;100288.25;;;2.32;90.42
55675;BME280;41562;44.330;23.802;2023-02-01T01:38:24;100291.81;;;2.44;90.81
55675;BME280;41562;44.330;23.802;2023-02-01T01:40:51;100290.50;;;2.53;90.29
55675;BME280;41562;44.330;23.802;2023-02-01T01:43:20;100295.63;;;2.48;89.27
55675;BME280;41562;44.330;23.802;2023-02-01T01:45:47;100294.66;;;2.42;90.75
55675;BME280;41562;44.330;23.802;2023-02-01T01:48:26;100291.97;;;2.49;90.45
55675;BME280;41562;44.330;23.802;2023-02-01T01:51:00;100295.00;;;2.53;89.64
55675;BME280;41562;44.330;23.802;2023-02-01T01:53:41;100289.88;;;2.33;89.43
55675;BME280;41562;44.330;23.802;2023-02-01T01:56:10;100300.44;;;2.33;89.73
55675;BME280;41562;44.330;23.802;2023-02-01T01:58:37;100297.19;;;2.31;91.95
55675;BME280;41562;44.330;23.802;2023-02-01T02:01:05;100296.06;;;2.20;91.35
55675;BME280;41562;44.330;23.802;2023-02-01T02:03:41;100302.25;;;2.08;91.66
55675;BME280;41562;44.330;23.802;2023-02-01T02:09:03;100299.69;;;2.26;93.93
55675;BME280;41562;44.330;23.802;2023-02-01T02:11:33;100303.78;;;2.15;90.58
55675;BME280;41562;44.330;23.802;2023-02-01T02:14:01;100313.22;;;2.05;90.91
55675;BME280;41562;44.330;23.802;2023-02-01T02:20:16;100311.25;;;2.25;92.00
55675;BME280;41562;44.330;23.802;2023-02-01T02:33:22;100299.03;;;2.30;90.77
55675;BME280;41562;44.330;23.802;2023-02-01T02:38:33;100298.75;;;2.14;91.30
55675;BME280;41562;44.330;23.802;2023-02-01T02:41:33;100303.75;;;2.22;91.34
55675;BME280;41562;44.330;23.802;2023-02-01T02:44:08;100301.59;;;2.12;92.28
55675;BME280;41562;44.330;23.802;2023-02-01T02:46:38;100297.22;;;1.99;92.39
55675;BME280;41562;44.330;23.802;2023-02-01T02:49:42;100291.25;;;2.11;92.22
55675;BME280;41562;44.330;23.802;2023-02-01T02:52:10;100289.72;;;1.96;92.72
55675;BME280;41562;44.330;23.802;2023-02-01T02:54:43;100288.13;;;1.95;92.19
55675;BME280;41562;44.330;23.802;2023-02-01T02:57:17;100286.00;;;2.11;92.13
55675;BME280;41562;44.330;23.802;2023-02-01T02:59:47;100292.88;;;2.12;92.92
55675;BME280;41562;44.330;23.802;2023-02-01T03:02:15;100290.38;;;1.92;92.00
55675;BME280;41562;44.330;23.802;2023-02-01T03:04:43;100302.13;;;1.96;92.58
55675;BME280;41562;44.330;23.802;2023-02-01T03:07:45;100293.00;;;1.92;92.84
55675;BME280;41562;44.330;23.802;2023-02-01T03:10:09;100287.38;;;1.88;94.26
55675;BME280;41562;44.330;23.802;2023-02-01T03:12:40;100309.66;;;1.92;93.31
55675;BME280;41562;44.330;23.802;2023-02-01T03:15:10;100307.81;;;1.93;93.52
55675;BME280;41562;44.330;23.802;2023-02-01T03:17:42;100300.28;;;1.96;94.10
55675;BME280;41562;44.330;23.802;2023-02-01T03:20:11;100307.50;;;1.83;92.86
55675;BME280;41562;44.330;23.802;2023-02-01T03:22:42;100310.94;;;1.83;93.40
55675;BME280;41562;44.330;23.802;2023-02-01T03:25:15;100298.38;;;1.79;93.48
55675;BME280;41562;44.330;23.802;2023-02-01T03:28:03;100301.53;;;1.94;94.42
55675;BME280;41562;44.330;23.802;2023-02-01T03:30:43;100299.94;;;1.86;94.48
55675;BME280;41562;44.330;23.802;2023-02-01T03:33:22;100291.03;;;1.87;93.90
55675;BME280;41562;44.330;23.802;2023-02-01T03:40:53;100292.13;;;2.05;92.55
55675;BME280;41562;44.330;23.802;2023-02-01T03:43:24;100299.91;;;1.93;93.49
55675;BME280;41562;44.330;23.802;2023-02-01T03:45:59;100293.81;;;1.92;93.26
55675;BME280;41562;44.330;23.802;2023-02-01T03:48:28;100301.94;;;1.91;95.06
55675;BME280;41562;44.330;23.802;2023-02-01T03:50:59;100301.75;;;1.92;93.92
55675;BME280;41562;44.330;23.802;2023-02-01T03:53:27;100307.22;;;1.91;93.73
55675;BME280;41562;44.330;23.802;2023-02-01T03:55:56;100310.69;;;1.85;93.65
55675;BME280;41562;44.330;23.802;2023-02-01T03:58:24;100310.13;;;1.83;93.79
55675;BME280;41562;44.330;23.802;2023-02-01T04:00:55;100309.22;;;1.95;93.70
55675;BME280;41562;44.330;23.802;2023-02-01T04:03:24;100303.97;;;1.95;93.30
55675;BME280;41562;44.330;23.802;2023-02-01T04:05:52;100315.25;;;2.02;93.12
55675;BME280;41562;44.330;23.802;2023-02-01T04:08:20;100320.31;;;2.04;98.21
55675;BME280;41562;44.330;23.802;2023-02-01T04:10:48;100314.44;;;2.09;93.07
55675;BME280;41562;44.330;23.802;2023-02-01T04:13:15;100320.53;;;2.02;92.99
55675;BME280;41562;44.330;23.802;2023-02-01T04:15:43;100322.78;;;1.99;92.93
55675;BME280;41562;44.330;23.802;2023-02-01T04:18:10;100314.31;;;2.22;99.16
55675;BME280;41562;44.330;23.802;2023-02-01T04:20:38;100316.38;;;2.20;94.15
55675;BME280;41562;44.330;23.802;2023-02-01T04:23:05;100316.47;;;2.07;93.24
55675;BME280;41562;44.330;23.802;2023-02-01T04:25:33;100309.94;;;2.09;92.86
55675;BME280;41562;44.330;23.802;2023-02-01T04:28:00;100323.16;;;2.02;93.03
55675;BME280;41562;44.330;23.802;2023-02-01T04:30:27;100315.19;;;2.09;94.33
55675;BME280;41562;44.330;23.802;2023-02-01T04:32:55;100312.75;;;6.66;86.89
55675;BME280;41562;44.330;23.802;2023-02-01T04:35:22;100305.97;;;8.11;75.54
55675;BME280;41562;44.330;23.802;2023-02-01T04:37:49;100315.94;;;7.45;75.38
55675;BME280;41562;44.330;23.802;2023-02-01T04:40:17;100314.19;;;7.34;77.99
55675;BME280;41562;44.330;23.802;2023-02-01T04:42:44;100315.53;;;7.15;79.19
55675;BME280;41562;44.330;23.802;2023-02-01T04:45:11;100324.84;;;7.34;79.19
55675;BME280;41562;44.330;23.802;2023-02-01T04:47:39;100331.31;;;7.00;75.79
55675;BME280;41562;44.330;23.802;2023-02-01T04:50:06;100330.78;;;6.64;75.38
55675;BME280;41562;44.330;23.802;2023-02-01T04:52:33;100326.25;;;5.18;79.93
55675;BME280;41562;44.330;23.802;2023-02-01T04:55:01;100324.34;;;5.42;79.74
55675;BME280;41562;44.330;23.802;2023-02-01T04:57:28;100307.94;;;5.16;82.84
55675;BME280;41562;44.330;23.802;2023-02-01T05:00:08;100304.13;;;4.19;84.44
55675;BME280;41562;44.330;23.802;2023-02-01T05:02:36;100315.59;;;5.41;81.99
55675;BME280;41562;44.330;23.802;2023-02-01T05:05:04;100307.38;;;3.61;88.87
55675;BME280;41562;44.330;23.802;2023-02-01T05:07:32;100315.72;;;2.92;91.59
55675;BME280;41562;44.330;23.802;2023-02-01T05:10:00;100316.56;;;2.68;95.66
55675;BME280;41562;44.330;23.802;2023-02-01T05:12:27;100309.38;;;2.32;98.01
55675;BME280;41562;44.330;23.802;2023-02-01T05:14:58;100313.81;;;2.07;97.46
55675;BME280;41562;44.330;23.802;2023-02-01T05:17:26;100318.13;;;2.01;99.23
55675;BME280;41562;44.330;23.802;2023-02-01T05:19:54;100318.56;;;1.91;98.73
55675;BME280;41562;44.330;23.802;2023-02-01T05:22:22;100312.56;;;1.78;99.45
55675;BME280;41562;44.330;23.802;2023-02-01T05:24:53;100313.06;;;1.61;100.00
55675;BME280;41562;44.330;23.802;2023-02-01T05:27:37;100315.13;;;1.53;100.00
55675;BME280;41562;44.330;23.802;2023-02-01T05:30:06;100319.22;;;1.49;100.00
55675;BME280;41562;44.330;23.802;2023-02-01T05:32:36;100330.31;;;1.57;100.00
55675;BME280;41562;44.330;23.802;2023-02-01T05:35:07;100329.28;;;1.58;100.00
55675;BME280;41562;44.330;23.802;2023-02-01T05:37:41;100324.59;;;1.67;100.00
55675;BME280;41562;44.330;23.802;2023-02-01T05:40:13;100326.31;;;1.48;100.00
55675;BME280;41562;44.330;23.802;2023-02-01T05:42:43;100331.34;;;1.56;100.00
55675;BME280;41562;44.330;23.802;2023-02-01T05:45:13;100333.69;;;1.71;100.00
55675;BME280;41562;44.330;23.802;2023-02-01T05:47:40;100334.75;;;1.64;100.00
55675;BME280;41562;44.330;23.802;2023-02-01T05:50:16;100328.94;;;1.48;100.00
55675;BME280;41562;44.330;23.802;2023-02-01T05:52:43;100314.28;;;1.59;100.00
55675;BME280;41562;44.330;23.802;2023-02-01T05:55:22;100324.00;;;1.58;100.00
55675;BME280;41562;44.330;23.802;2023-02-01T05:57:51;100326.81;;;1.70;100.00
55675;BME280;41562;44.330;23.802;2023-02-01T06:00:22;100333.03;;;1.82;100.00
55675;BME280;41562;44.330;23.802;2023-02-01T06:02:54;100334.44;;;1.85;100.00
55675;BME280;41562;44.330;23.802;2023-02-01T06:05:31;100335.13;;;2.05;100.00
55675;BME280;41562;44.330;23.802;2023-02-01T06:08:05;100328.25;;;1.97;100.00
55675;BME280;41562;44.330;23.802;2023-02-01T06:10:38;100336.84;;;1.86;100.00
55675;BME280;41562;44.330;23.802;2023-02-01T06:13:07;100333.66;;;2.09;100.00
55675;BME280;41562;44.330;23.802;2023-02-01T06:15:46;100326.91;;;2.20;100.00
55675;BME280;41562;44.330;23.802;2023-02-01T06:18:13;100327.50;;;2.22;100.00
55675;BME280;41562;44.330;23.802;2023-02-01T06:20:44;100333.81;;;2.21;100.00
55675;BME280;41562;44.330;23.802;2023-02-01T06:23:11;100326.66;;;2.96;98.59
55675;BME280;41562;44.330;23.802;2023-02-01T06:25:58;100326.34;;;3.04;100.00
55675;BME280;41562;44.330;23.802;2023-02-01T06:28:29;100325.47;;;2.92;97.73
55675;BME280;41562;44.330;23.802;2023-02-01T06:31:05;100314.59;;;2.81;100.00
55675;BME280;41562;44.330;23.802;2023-02-01T06:33:41;100319.97;;;2.75;100.00
55675;BME280;41562;44.330;23.802;2023-02-01T06:36:10;100324.91;;;2.90;100.00
55675;BME280;41562;44.330;23.802;2023-02-01T06:38:38;100332.22;;;3.06;97.91
55675;BME280;41562;44.330;23.802;2023-02-01T06:41:06;100332.31;;;2.99;99.01
55675;BME280;41562;44.330;23.802;2023-02-01T06:43:33;100335.00;;;3.29;97.37
55675;BME280;41562;44.330;23.802;2023-02-01T06:46:02;100335.22;;;3.94;94.86
55675;BME280;41562;44.330;23.802;2023-02-01T06:48:30;100328.22;;;4.53;90.02
55675;BME280;41562;44.330;23.802;2023-02-01T06:50:57;100329.59;;;4.90;88.39
55675;BME280;41562;44.330;23.802;2023-02-01T06:53:25;100336.72;;;6.04;83.59
55675;BME280;41562;44.330;23.802;2023-02-01T06:55:54;100333.53;;;6.36;82.84
55675;BME280;41562;44.330;23.802;2023-02-01T06:58:22;100338.75;;;6.81;78.78
55675;BME280;41562;44.330;23.802;2023-02-01T07:00:49;100333.22;;;7.04;76.57
55675;BME280;41562;44.330;23.802;2023-02-01T07:03:20;100338.13;;;7.34;78.20
55675;BME280;41562;44.330;23.802;2023-02-01T07:05:47;100341.63;;;7.56;74.46
55675;BME280;41562;44.330;23.802;2023-02-01T07:08:15;100335.66;;;7.98;72.55
55675;BME280;41562;44.330;23.802;2023-02-01T07:10:43;100344.53;;;8.30;71.54
55675;BME280;41562;44.330;23.802;2023-02-01T07:13:10;100349.94;;;8.72;69.09
55675;BME280;41562;44.330;23.802;2023-02-01T07:15:40;100346.00;;;8.48;72.40
55675;BME280;41562;44.330;23.802;2023-02-01T07:18:07;100341.16;;;8.72;72.87
55675;BME280;41562;44.330;23.802;2023-02-01T07:20:34;100341.53;;;8.91;71.14
55675;BME280;41562;44.330;23.802;2023-02-01T07:23:02;100337.72;;;7.91;74.97
55675;BME280;41562;44.330;23.802;2023-02-01T07:25:29;100331.34;;;7.92;73.16
55675;BME280;41562;44.330;23.802;2023-02-01T07:27:57;100339.94;;;7.50;72.71
55675;BME280;41562;44.330;23.802;2023-02-01T07:30:24;100346.03;;;7.73;73.25
55675;BME280;41562;44.330;23.802;2023-02-01T07:32:51;100343.19;;;7.52;73.38
55675;BME280;41562;44.330;23.802;2023-02-01T07:35:19;100348.88;;;7.88;72.93
55675;BME280;41562;44.330;23.802;2023-02-01T07:37:46;100337.16;;;7.40;73.28
55675;BME280;41562;44.330;23.802;2023-02-01T07:40:14;100341.06;;;7.54;74.03
55675;BME280;41562;44.330;23.802;2023-02-01T07:42:41;100340.94;;;7.93;74.29
55675;BME280;41562;44.330;23.802;2023-02-01T07:45:09;100337.00;;;7.95;77.79
55675;BME280;41562;44.330;23.802;2023-02-01T07:47:48;100343.22;;;8.33;75.18
55675;BME280;41562;44.330;23.802;2023-02-01T07:50:15;100345.00;;;8.91;74.00
55675;BME280;41562;44.330;23.802;2023-02-01T07:52:43;100343.38;;;8.85;69.42
55675;BME280;41562;44.330;23.802;2023-02-01T07:55:10;100341.72;;;9.26;77.05
55675;BME280;41562;44.330;23.802;2023-02-01T07:57:38;100347.34;;;8.82;69.56
55675;BME280;41562;44.330;23.802;2023-02-01T08:00:06;100351.47;;;9.05;68.91
55675;BME280;41562;44.330;23.802;2023-02-01T08:02:34;100340.38;;;8.76;68.55
55675;BME280;41562;44.330;23.802;2023-02-01T08:05:01;100348.88;;;9.10;73.22
55675;BME280;41562;44.330;23.802;2023-02-01T08:07:29;100353.00;;;9.38;67.83
55675;BME280;41562;44.330;23.802;2023-02-01T08:09:56;100345.13;;;9.11;70.38
55675;BME280;41562;44.330;23.802;2023-02-01T08:12:23;100331.13;;;8.89;67.72
55675;BME280;41562;44.330;23.802;2023-02-01T08:14:53;100329.63;;;8.66;71.60
55675;BME280;41562;44.330;23.802;2023-02-01T08:17:20;100332.00;;;9.05;69.27
55675;BME280;41562;44.330;23.802;2023-02-01T08:19:47;100335.66;;;9.36;68.24
55675;BME280;41562;44.330;23.802;2023-02-01T08:22:14;100329.31;;;9.57;66.71
55675;BME280;41562;44.330;23.802;2023-02-01T08:24:42;100325.16;;;9.86;71.87
55675;BME280;41562;44.330;23.802;2023-02-01T08:27:10;100326.72;;;9.87;66.11
55675;BME280;41562;44.330;23.802;2023-02-01T08:29:37;100305.34;;;9.77;64.30
55675;BME280;41562;44.330;23.802;2023-02-01T08:32:05;100321.31;;;9.62;64.74
55675;BME280;41562;44.330;23.802;2023-02-01T08:34:32;100305.16;;;10.19;65.95
55675;BME280;41562;44.330;23.802;2023-02-01T08:37:01;100304.06;;;10.76;61.00
55675;BME280;41562;44.330;23.802;2023-02-01T08:39:29;100305.97;;;10.65;60.39
55675;BME280;41562;44.330;23.802;2023-02-01T08:41:56;100311.25;;;9.89;63.43
55675;BME280;41562;44.330;23.802;2023-02-01T08:44:25;100299.00;;;10.03;67.85
55675;BME280;41562;44.330;23.802;2023-02-01T08:46:52;100298.13;;;9.73;64.49
55675;BME280;41562;44.330;23.802;2023-02-01T08:49:19;100298.94;;;9.73;64.40
55675;BME280;41562;44.330;23.802;2023-02-01T08:51:46;100288.34;;;9.16;65.22
55675;BME280;41562;44.330;23.802;2023-02-01T08:54:14;100295.66;;;9.41;64.78
55675;BME280;41562;44.330;23.802;2023-02-01T08:56:41;100296.78;;;9.75;68.21
55675;BME280;41562;44.330;23.802;2023-02-01T08:59:08;100297.91;;;9.17;64.80
55675;BME280;41562;44.330;23.802;2023-02-01T09:01:36;100290.22;;;9.20;64.57
55675;BME280;41562;44.330;23.802;2023-02-01T09:04:03;100292.25;;;9.71;68.73
55675;BME280;41562;44.330;23.802;2023-02-01T09:06:30;100286.09;;;9.60;70.69
55675;BME280;41562;44.330;23.802;2023-02-01T09:08:57;100293.31;;;9.69;65.15
55675;BME280;41562;44.330;23.802;2023-02-01T09:11:25;100291.28;;;9.19;64.59
55675;BME280;41562;44.330;23.802;2023-02-01T09:13:52;100290.72;;;8.65;71.01
55675;BME280;41562;44.330;23.802;2023-02-01T09:16:19;100294.19;;;9.13;66.84
55675;BME280;41562;44.330;23.802;2023-02-01T09:18:47;100303.03;;;8.71;66.68
55675;BME280;41562;44.330;23.802;2023-02-01T09:21:34;100309.25;;;8.92;66.65
55675;BME280;41562;44.330;23.802;2023-02-01T09:24:01;100303.66;;;9.41;71.04
55675;BME280;41562;44.330;23.802;2023-02-01T09:26:29;100287.41;;;9.52;71.35
55675;BME280;41562;44.330;23.802;2023-02-01T09:29:00;100303.88;;;9.29;65.95
55675;BME280;41562;44.330;23.802;2023-02-01T09:31:28;100302.38;;;9.58;65.41
55675;BME280;41562;44.330;23.802;2023-02-01T09:33:56;100300.56;;;9.79;67.47
55675;BME280;41562;44.330;23.802;2023-02-01T09:36:23;100298.97;;;9.88;70.29
55675;BME280;41562;44.330;23.802;2023-02-01T09:38:50;100297.09;;;9.74;63.23
55675;BME280;41562;44.330;23.802;2023-02-01T09:41:42;100283.44;;;9.65;62.94
55675;BME280;41562;44.330;23.802;2023-02-01T09:47:12;100292.81;;;9.83;64.27
55675;BME280;41562;44.330;23.802;2023-02-01T09:49:48;100289.09;;;9.89;62.53
55675;BME280;41562;44.330;23.802;2023-02-01T09:52:22;100293.09;;;10.01;61.61
55675;BME280;41562;44.330;23.802;2023-02-01T09:55:06;100294.16;;;9.95;63.78
55675;BME280;41562;44.330;23.802;2023-02-01T09:57:55;100277.06;;;9.96;62.88
55675;BME280;41562;44.330;23.802;2023-02-01T10:00:29;100279.16;;;9.74;61.70
55675;BME280;41562;44.330;23.802;2023-02-01T10:02:57;100266.56;;;9.49;61.94
55675;BME280;41562;44.330;23.802;2023-02-01T10:05:43;100265.28;;;9.67;65.71
55675;BME280;41562;44.330;23.802;2023-02-01T10:10:50;100266.63;;;9.69;62.91
55675;BME280;41562;44.330;23.802;2023-02-01T10:13:28;100262.06;;;9.60;63.12
55675;BME280;41562;44.330;23.802;2023-02-01T10:21:27;100251.41;;;9.60;63.13
55675;BME280;41562;44.330;23.802;2023-02-01T10:24:20;100234.94;;;9.06;67.30
55675;BME280;41562;44.330;23.802;2023-02-01T10:27:14;100235.63;;;8.86;66.66
55675;BME280;41562;44.330;23.802;2023-02-01T10:29:48;100240.44;;;8.42;66.15
55675;BME280;41562;44.330;23.802;2023-02-01T10:32:22;100231.22;;;8.23;67.60
55675;BME280;41562;44.330;23.802;2023-02-01T10:35:04;100216.56;;;8.20;73.72
55675;BME280;41562;44.330;23.802;2023-02-01T10:37:36;100219.75;;;8.22;69.61
55675;BME280;41562;44.330;23.802;2023-02-01T10:42:43;100214.38;;;8.12;69.08
55675;BME280;41562;44.330;23.802;2023-02-01T10:45:16;100206.81;;;9.65;64.48
55675;BME280;41562;44.330;23.802;2023-02-01T10:47:45;100201.88;;;9.12;65.90
55675;BME280;41562;44.330;23.802;2023-02-01T10:52:54;100189.16;;;9.39;64.32
55675;BME280;41562;44.330;23.802;2023-02-01T10:58:00;100191.06;;;10.30;61.74
55675;BME280;41562;44.330;23.802;2023-02-01T11:00:28;100195.34;;;10.16;59.88
55675;BME280;41562;44.330;23.802;2023-02-01T11:04:01;100183.84;;;9.69;60.53
55675;BME280;41562;44.330;23.802;2023-02-01T11:08:51;100182.78;;;9.60;61.64
55675;BME280;41562;44.330;23.802;2023-02-01T11:11:20;100165.41;;;9.93;60.60
55675;BME280;41562;44.330;23.802;2023-02-01T11:13:54;100154.22;;;9.76;60.47
55675;BME280;41562;44.330;23.802;2023-02-01T11:16:29;100175.28;;;10.13;65.66
55675;BME280;41562;44.330;23.802;2023-02-01T11:18:58;100165.16;;;9.64;60.77
55675;BME280;41562;44.330;23.802;2023-02-01T11:21:25;100172.91;;;9.71;59.75
55675;BME280;41562;44.330;23.802;2023-02-01T11:23:53;100166.50;;;9.97;63.96
55675;BME280;41562;44.330;23.802;2023-02-01T11:26:25;100158.91;;;10.60;62.71
55675;BME280;41562;44.330;23.802;2023-02-01T11:29:01;100149.91;;;10.31;58.28
55675;BME280;41562;44.330;23.802;2023-02-01T11:31:30;100158.94;;;10.55;58.74
55675;BME280;41562;44.330;23.802;2023-02-01T11:34:07;100152.81;;;10.39;62.05
55675;BME280;41562;44.330;23.802;2023-02-01T11:36:35;100160.41;;;10.81;61.46
55675;BME280;41562;44.330;23.802;2023-02-01T11:41:42;100151.69;;;10.66;55.77
55675;BME280;41562;44.330;23.802;2023-02-01T11:44:36;100136.25;;;10.42;60.21
55675;BME280;41562;44.330;23.802;2023-02-01T11:47:21;100151.03;;;10.89;56.93
55675;BME280;41562;44.330;23.802;2023-02-01T11:49:51;100150.75;;;10.91;56.04
55675;BME280;41562;44.330;23.802;2023-02-01T11:55:13;100147.13;;;10.66;59.07
55675;BME280;41562;44.330;23.802;2023-02-01T11:58:04;100149.19;;;10.84;54.81
55675;BME280;41562;44.330;23.802;2023-02-01T12:03:41;100148.47;;;10.64;54.48
55675;BME280;41562;44.330;23.802;2023-02-01T12:06:25;100147.91;;;11.21;57.86
55675;BME280;41562;44.330;23.802;2023-02-01T12:14:38;100150.13;;;11.09;53.17
55675;BME280;41562;44.330;23.802;2023-02-01T12:19:50;100146.03;;;10.72;52.88
55675;BME280;41562;44.330;23.802;2023-02-01T12:22:49;100140.63;;;10.82;54.02
55675;BME280;41562;44.330;23.802;2023-02-01T12:31:15;100139.78;;;10.92;51.79
55675;BME280;41562;44.330;23.802;2023-02-01T12:40:28;100136.47;;;10.61;51.78
55675;BME280;41562;44.330;23.802;2023-02-01T12:45:53;100133.00;;;10.51;55.38
55675;BME280;41562;44.330;23.802;2023-02-01T12:48:26;100129.47;;;10.65;52.05
55675;BME280;41562;44.330;23.802;2023-02-01T12:51:03;100118.41;;;10.07;51.85
55675;BME280;41562;44.330;23.802;2023-02-01T12:53:48;100125.91;;;9.90;52.73
55675;BME280;41562;44.330;23.802;2023-02-01T12:56:29;100130.66;;;10.14;51.90
55675;BME280;41562;44.330;23.802;2023-02-01T12:59:02;100133.41;;;9.58;53.45
55675;BME280;41562;44.330;23.802;2023-02-01T13:01:45;100125.91;;;9.45;54.46
55675;BME280;41562;44.330;23.802;2023-02-01T13:04:19;100128.06;;;9.73;54.21
55675;BME280;41562;44.330;23.802;2023-02-01T13:07:41;100135.78;;;9.95;56.75
55675;BME280;41562;44.330;23.802;2023-02-01T13:09:55;100134.44;;;9.97;52.14
55675;BME280;41562;44.330;23.802;2023-02-01T13:12:37;100134.44;;;9.97;53.16
55675;BME280;41562;44.330;23.802;2023-02-01T13:17:41;100132.84;;;10.12;51.14
55675;BME280;41562;44.330;23.802;2023-02-01T13:20:20;100140.34;;;9.84;51.82
55675;BME280;41562;44.330;23.802;2023-02-01T13:22:57;100140.88;;;9.71;51.84
55675;BME280;41562;44.330;23.802;2023-02-01T13:28:06;100137.94;;;9.83;53.14
55675;BME280;41562;44.330;23.802;2023-02-01T13:30:57;100134.47;;;9.72;52.29
55675;BME280;41562;44.330;23.802;2023-02-01T13:42:02;100134.47;;;9.67;50.23
55675;BME280;41562;44.330;23.802;2023-02-01T13:44:58;100140.59;;;9.78;54.59
55675;BME280;41562;44.330;23.802;2023-02-01T13:49:57;100131.78;;;9.52;50.56
55675;BME280;41562;44.330;23.802;2023-02-01T13:52:29;100140.59;;;9.47;50.16
55675;BME280;41562;44.330;23.802;2023-02-01T13:55:27;100127.53;;;9.61;50.10
55675;BME280;41562;44.330;23.802;2023-02-01T13:58:18;100129.94;;;9.47;52.02
55675;BME280;41562;44.330;23.802;2023-02-01T14:00:48;100136.59;;;9.40;52.65
55675;BME280;41562;44.330;23.802;2023-02-01T14:03:20;100128.25;;;9.06;52.53
55675;BME280;41562;44.330;23.802;2023-02-01T14:08:38;100115.22;;;9.14;54.31
55675;BME280;41562;44.330;23.802;2023-02-01T14:11:46;100117.81;;;8.99;55.65
55675;BME280;41562;44.330;23.802;2023-02-01T14:16:43;100108.25;;;9.13;58.01
55675;BME280;41562;44.330;23.802;2023-02-01T14:21:52;100108.50;;;9.02;53.74
55675;BME280;41562;44.330;23.802;2023-02-01T14:24:30;100114.91;;;9.11;53.54
55675;BME280;41562;44.330;23.802;2023-02-01T14:27:07;100103.75;;;9.44;55.10
55675;BME280;41562;44.330;23.802;2023-02-01T14:29:51;100104.00;;;9.17;54.69
55675;BME280;41562;44.330;23.802;2023-02-01T14:32:21;100105.84;;;9.07;53.59
55675;BME280;41562;44.330;23.802;2023-02-01T14:34:51;100118.94;;;9.13;56.12
55675;BME280;41562;44.330;23.802;2023-02-01T14:39:54;100109.56;;;9.01;53.79
55675;BME280;41562;44.330;23.802;2023-02-01T14:42:26;100105.31;;;9.00;53.58
55675;BME280;41562;44.330;23.802;2023-02-01T14:45:45;100111.69;;;8.88;57.06
55675;BME280;41562;44.330;23.802;2023-02-01T14:47:43;100110.88;;;8.98;57.03
55675;BME280;41562;44.330;23.802;2023-02-01T14:50:17;100108.16;;;8.73;53.50
55675;BME280;41562;44.330;23.802;2023-02-01T14:55:24;100112.44;;;8.79;55.33
55675;BME280;41562;44.330;23.802;2023-02-01T14:57:55;100103.44;;;8.90;56.65
55675;BME280;41562;44.330;23.802;2023-02-01T15:00:27;100101.28;;;8.92;56.34
55675;BME280;41562;44.330;23.802;2023-02-01T15:06:00;100100.75;;;8.85;56.02